createdAt,value
2018-02-12T00:02:13.040Z,84.20
2018-02-12T00:04:46.289Z,84.10
2018-02-12T00:07:19.008Z,84.10
2018-02-12T00:09:52.320Z,84.00
2018-02-12T00:12:24.847Z,83.90
2018-02-12T00:14:57.264Z,83.90
2018-02-12T00:17:30.734Z,83.90
2018-02-12T00:20:03.291Z,83.90
2018-02-12T00:22:35.800Z,83.90
2018-02-12T00:25:09.096Z,84.00
2018-02-12T00:27:41.715Z,84.10
2018-02-12T00:30:14.460Z,84.10
2018-02-12T00:32:47.140Z,84.10
2018-02-12T00:35:19.562Z,84.10
2018-02-12T00:37:53.350Z,84.10
2018-02-12T00:40:26.660Z,84.10
2018-02-12T00:42:59.496Z,84.10
2018-02-12T00:45:32.166Z,84.00
2018-02-12T00:48:04.807Z,84.10
2018-02-12T00:50:38.872Z,83.90
2018-02-12T00:53:11.871Z,83.90
2018-02-12T00:55:45.220Z,84.00
2018-02-12T00:58:18.359Z,84.00
2018-02-12T01:00:51.173Z,84.00
2018-02-12T01:03:23.695Z,84.00
2018-02-12T01:05:56.265Z,84.00
2018-02-12T01:08:28.913Z,84.00
2018-02-12T01:11:01.328Z,84.00
2018-02-12T01:13:34.882Z,83.90
2018-02-12T01:16:08.179Z,84.40
2018-02-12T01:18:40.835Z,83.90
2018-02-12T01:21:13.362Z,83.70
2018-02-12T01:23:45.749Z,83.70
2018-02-12T01:26:18.367Z,83.60
2018-02-12T01:28:50.883Z,83.40
2018-02-12T01:31:24.079Z,83.30
2018-02-12T01:33:56.775Z,83.30
2018-02-12T01:36:29.203Z,83.20
2018-02-12T01:39:02.079Z,83.10
2018-02-12T01:41:35.185Z,83.20
2018-02-12T01:44:07.832Z,83.10
2018-02-12T01:46:41.073Z,82.90
2018-02-12T01:49:14.370Z,83.00
2018-02-12T01:51:47.102Z,83.00
2018-02-12T01:54:19.553Z,83.10
2018-02-12T01:56:52.900Z,82.90
2018-02-12T01:59:26.555Z,82.80
2018-02-12T02:01:59.085Z,82.80
2018-02-12T02:04:31.630Z,82.80
2018-02-12T02:07:04.922Z,82.80
2018-02-12T02:09:37.446Z,82.80
2018-02-12T02:12:09.957Z,82.90
2018-02-12T02:14:42.363Z,82.90
2018-02-12T02:17:14.962Z,82.80
2018-02-12T02:19:47.445Z,82.70
2018-02-12T02:22:21.511Z,82.80
2018-02-12T02:24:54.142Z,82.80
2018-02-12T02:27:26.681Z,82.90
2018-02-12T02:29:59.101Z,82.90
2018-02-12T02:32:32.425Z,82.90
2018-02-12T02:35:05.282Z,82.90
2018-02-12T02:40:42.455Z,82.90
2018-02-12T02:43:15.045Z,82.90
2018-02-12T02:45:47.417Z,82.90
2018-02-12T02:48:20.659Z,83.00
2018-02-12T02:50:53.285Z,82.90
2018-02-12T02:53:25.741Z,82.80
2018-02-12T02:55:58.410Z,82.70
2018-02-12T02:58:31.003Z,82.60
2018-02-12T03:01:04.159Z,82.60
2018-02-12T03:03:36.740Z,82.60
2018-02-12T03:06:09.447Z,82.40
2018-02-12T03:08:41.802Z,82.40
2018-02-12T03:11:14.306Z,82.20
2018-02-12T03:13:46.860Z,82.20
2018-02-12T03:16:19.220Z,82.20
2018-02-12T03:18:51.682Z,82.30
2018-02-12T03:21:24.016Z,82.40
2018-02-12T03:23:56.512Z,82.50
2018-02-12T03:26:29.810Z,82.40
2018-02-12T03:29:02.580Z,82.40
2018-02-12T03:31:35.070Z,82.40
2018-02-12T03:34:07.651Z,82.30
2018-02-12T03:36:40.094Z,82.20
2018-02-12T03:39:12.598Z,82.00
2018-02-12T03:41:45.981Z,82.00
2018-02-12T03:44:18.802Z,81.90
2018-02-12T03:46:51.436Z,81.90
2018-02-12T03:49:24.693Z,81.90
2018-02-12T03:51:57.324Z,82.00
2018-02-12T03:54:29.752Z,81.90
2018-02-12T03:57:02.976Z,82.00
2018-02-12T03:59:35.580Z,81.90
2018-02-12T04:02:08.264Z,81.80
2018-02-12T04:04:41.512Z,81.80
2018-02-12T04:07:14.053Z,81.70
2018-02-12T04:09:46.531Z,82.00
2018-02-12T04:12:19.344Z,82.00
2018-02-12T04:14:51.922Z,82.00
2018-02-12T04:17:25.227Z,82.00
2018-02-12T04:19:57.875Z,82.00
2018-02-12T04:22:30.203Z,82.10
2018-02-12T04:25:02.842Z,82.00
2018-02-12T04:27:35.498Z,81.50
2018-02-12T04:30:08.034Z,81.30
2018-02-12T04:32:40.499Z,81.00
2018-02-12T04:35:13.603Z,81.30
2018-02-12T04:37:46.314Z,81.30
2018-02-12T04:40:18.902Z,81.20
2018-02-12T04:42:52.205Z,81.10
2018-02-12T04:45:24.559Z,81.30
2018-02-12T04:47:57.126Z,81.40
2018-02-12T04:50:29.508Z,81.70
2018-02-12T04:53:02.586Z,81.90
2018-02-12T04:55:36.079Z,81.90
2018-02-12T04:58:08.902Z,81.90
2018-02-12T05:00:41.443Z,81.90
2018-02-12T05:03:13.919Z,81.70
2018-02-12T05:05:46.352Z,81.60
2018-02-12T05:08:18.805Z,81.30
2018-02-12T05:10:52.051Z,81.30
2018-02-12T05:13:24.829Z,81.40
2018-02-12T05:15:58.094Z,81.20
2018-02-12T05:18:31.158Z,81.20
2018-02-12T05:21:03.493Z,80.90
2018-02-12T05:23:36.887Z,80.40
2018-02-12T05:26:10.196Z,80.60
2018-02-12T05:28:43.174Z,80.40
2018-02-12T05:31:15.538Z,80.40
2018-02-12T05:33:48.121Z,80.30
2018-02-12T05:36:20.541Z,80.20
2018-02-12T05:38:53.774Z,79.90
2018-02-12T05:41:27.239Z,79.90
2018-02-12T05:44:00.975Z,80.10
2018-02-12T05:46:33.455Z,80.00
2018-02-12T05:49:06.256Z,80.20
2018-02-12T05:51:39.614Z,80.30
2018-02-12T05:54:12.918Z,80.00
2018-02-12T05:56:46.189Z,80.30
2018-02-12T05:59:18.710Z,80.40
2018-02-12T06:01:51.195Z,80.50
2018-02-12T06:04:24.541Z,80.40
2018-02-12T06:06:57.868Z,80.20
2018-02-12T06:09:30.748Z,80.30
2018-02-12T06:12:04.013Z,80.00
2018-02-12T06:14:36.480Z,79.70
2018-02-12T06:17:09.708Z,79.80
2018-02-12T06:19:42.096Z,79.60
2018-02-12T06:22:14.443Z,79.70
2018-02-12T06:24:47.693Z,79.90
2018-02-12T06:27:20.970Z,80.10
2018-02-12T06:29:53.854Z,80.20
2018-02-12T06:32:26.184Z,80.40
2018-02-12T06:34:59.442Z,80.70
2018-02-12T06:37:32.154Z,80.80
2018-02-12T06:40:04.930Z,81.00
2018-02-12T06:42:38.291Z,81.20
2018-02-12T06:45:10.716Z,81.10
2018-02-12T06:47:43.814Z,81.60
2018-02-12T06:50:17.264Z,82.40
2018-02-12T06:52:50.817Z,81.90
2018-02-12T06:55:23.515Z,81.90
2018-02-12T06:57:56.113Z,81.80
2018-02-12T07:00:28.481Z,81.90
2018-02-12T07:03:00.951Z,82.00
2018-02-12T07:05:33.444Z,82.20
2018-02-12T07:08:05.805Z,82.10
2018-02-12T07:10:39.778Z,82.10
2018-02-12T07:13:12.529Z,82.20
2018-02-12T07:15:45.171Z,81.60
2018-02-12T07:18:17.622Z,82.30
2018-02-12T07:20:50.344Z,81.50
2018-02-12T07:23:23.536Z,81.80
2018-02-12T07:25:56.032Z,81.60
2018-02-12T07:28:28.462Z,81.60
2018-02-12T07:31:01.019Z,81.30
2018-02-12T07:33:33.372Z,81.20
2018-02-12T07:36:05.981Z,81.40
2018-02-12T07:38:38.508Z,81.80
2018-02-12T07:41:11.468Z,81.80
2018-02-12T07:43:43.916Z,81.60
2018-02-12T07:46:16.473Z,81.70
2018-02-12T07:48:48.839Z,81.60
2018-02-12T07:51:21.507Z,81.70
2018-02-12T07:53:54.082Z,81.70
2018-02-12T07:56:26.474Z,81.70
2018-02-12T07:58:59.041Z,81.80
2018-02-12T08:01:31.626Z,81.90
2018-02-12T08:04:05.670Z,81.60
2018-02-12T08:06:38.576Z,81.60
2018-02-12T08:09:11.120Z,81.50
2018-02-12T08:11:43.758Z,81.40
2018-02-12T08:14:16.143Z,81.20
2018-02-12T08:16:48.823Z,80.80
2018-02-12T08:19:22.083Z,80.60
2018-02-12T08:21:54.685Z,80.40
2018-02-12T08:24:27.991Z,79.50
2018-02-12T08:27:00.469Z,79.00
2018-02-12T08:29:33.784Z,79.00
2018-02-12T08:32:06.534Z,78.30
2018-02-12T08:34:40.624Z,78.60
2018-02-12T08:37:13.352Z,78.60
2018-02-12T08:39:45.790Z,78.10
2018-02-12T08:42:18.280Z,78.10
2018-02-12T08:44:50.665Z,78.40
2018-02-12T08:47:23.376Z,78.40
2018-02-12T08:49:55.833Z,78.00
2018-02-12T08:52:28.348Z,78.10
2018-02-12T08:55:01.577Z,78.00
2018-02-12T08:57:34.811Z,77.60
2018-02-12T09:00:07.572Z,75.90
2018-02-12T09:02:39.999Z,74.20
2018-02-12T09:05:12.565Z,73.90
2018-02-12T09:07:46.786Z,72.30
2018-02-12T09:10:19.324Z,72.30
2018-02-12T09:12:51.780Z,72.60
2018-02-12T09:15:24.988Z,72.40
2018-02-12T09:17:57.649Z,72.40
2018-02-12T09:20:29.942Z,70.80
2018-02-12T09:23:03.262Z,71.10
2018-02-12T09:25:36.412Z,70.50
2018-02-12T09:28:09.939Z,69.20
2018-02-12T09:30:42.959Z,69.40
2018-02-12T09:33:15.621Z,68.90
2018-02-12T09:35:48.775Z,68.00
2018-02-12T09:38:21.221Z,68.20
2018-02-12T09:40:53.649Z,68.10
2018-02-12T09:43:26.153Z,66.30
2018-02-12T09:45:58.702Z,67.80
2018-02-12T09:48:32.192Z,64.60
2018-02-12T09:51:05.290Z,64.30
2018-02-12T09:53:37.729Z,63.00
2018-02-12T09:56:10.199Z,63.80
2018-02-12T09:58:43.552Z,64.30
2018-02-12T10:01:16.676Z,66.40
2018-02-12T10:03:49.443Z,66.40
2018-02-12T10:06:21.930Z,65.80
2018-02-12T10:08:54.405Z,65.30
2018-02-12T10:11:27.559Z,64.10
2018-02-12T10:14:00.497Z,64.10
2018-02-12T10:16:33.778Z,65.00
2018-02-12T10:19:07.105Z,64.70
2018-02-12T10:21:39.530Z,65.60
2018-02-12T10:24:12.029Z,63.90
2018-02-12T10:26:45.284Z,65.30
2018-02-12T10:29:17.891Z,65.60
2018-02-12T10:31:51.147Z,66.20
2018-02-12T10:34:24.008Z,65.40
2018-02-12T10:36:57.328Z,66.80
2018-02-12T10:39:29.906Z,65.70
2018-02-12T10:42:03.911Z,65.30
2018-02-12T10:44:37.775Z,65.40
2018-02-12T10:49:49.720Z,63.50
2018-02-12T10:52:22.305Z,63.20
2018-02-12T10:54:55.479Z,62.70
2018-02-12T10:57:28.115Z,62.80
2018-02-12T11:00:00.888Z,63.20
2018-02-12T11:02:34.020Z,66.00
2018-02-12T11:05:07.423Z,64.70
2018-02-12T11:07:40.108Z,64.70
2018-02-12T11:10:12.615Z,64.60
2018-02-12T11:12:45.791Z,65.30
2018-02-12T11:15:19.367Z,64.00
2018-02-12T11:17:52.281Z,64.00
2018-02-12T11:20:25.438Z,65.80
2018-02-12T11:22:58.117Z,65.80
2018-02-12T11:25:30.501Z,65.00
2018-02-12T11:28:05.108Z,67.30
2018-02-12T11:30:37.879Z,67.30
2018-02-12T11:33:10.400Z,67.70
2018-02-12T11:35:43.707Z,67.40
2018-02-12T11:38:16.106Z,66.90
2018-02-12T11:40:48.555Z,67.10
2018-02-12T11:43:20.921Z,67.20
2018-02-12T11:45:54.178Z,67.10
2018-02-12T11:48:27.648Z,67.60
2018-02-12T11:51:00.629Z,67.60
2018-02-12T11:53:33.719Z,67.30
2018-02-12T11:56:06.342Z,67.10
2018-02-12T11:58:39.478Z,67.10
2018-02-12T12:01:12.200Z,67.10
2018-02-12T12:03:44.670Z,66.80
2018-02-12T12:06:17.113Z,63.80
2018-02-12T12:08:49.618Z,63.40
2018-02-12T12:11:22.089Z,62.60
2018-02-12T12:13:54.625Z,61.80
2018-02-12T12:16:27.047Z,60.90
2018-02-12T12:19:00.407Z,59.90
2018-02-12T12:21:33.711Z,62.00
2018-02-12T12:24:06.711Z,62.00
2018-02-12T12:26:39.260Z,61.90
2018-02-12T12:29:12.088Z,60.20
2018-02-12T12:31:44.936Z,60.20
2018-02-12T12:34:17.499Z,60.20
2018-02-12T12:36:50.326Z,61.40
2018-02-12T12:39:22.771Z,60.30
2018-02-12T12:41:55.291Z,58.30
2018-02-12T12:44:27.745Z,59.90
2018-02-12T12:47:00.214Z,61.80
2018-02-12T12:49:32.822Z,60.40
2018-02-12T12:52:05.470Z,59.10
2018-02-12T12:54:38.004Z,58.00
2018-02-12T12:57:10.593Z,57.50
2018-02-12T12:59:43.017Z,55.60
2018-02-12T13:02:15.450Z,56.90
2018-02-12T13:04:48.058Z,56.00
2018-02-12T13:07:20.629Z,58.00
2018-02-12T13:09:52.962Z,58.30
2018-02-12T13:12:25.861Z,57.00
2018-02-12T13:14:59.911Z,58.50
2018-02-12T13:17:33.340Z,57.60
2018-02-12T13:20:06.295Z,57.60
2018-02-12T13:22:39.016Z,56.60
2018-02-12T13:25:11.435Z,55.20
2018-02-12T13:27:43.995Z,58.10
2018-02-12T13:30:17.251Z,57.40
2018-02-12T13:32:49.773Z,58.00
2018-02-12T13:35:22.270Z,61.30
2018-02-12T13:37:54.838Z,62.70
2018-02-12T13:40:27.321Z,63.40
2018-02-12T13:43:00.705Z,64.40
2018-02-12T13:45:34.187Z,64.40
2018-02-12T13:48:07.694Z,64.60
2018-02-12T13:50:40.965Z,63.70
2018-02-12T13:53:14.149Z,63.70
2018-02-12T13:55:46.674Z,64.80
2018-02-12T13:58:19.263Z,65.10
2018-02-12T14:00:52.417Z,66.20
2018-02-12T14:03:25.528Z,66.00
2018-02-12T14:05:57.958Z,64.60
2018-02-12T14:08:30.802Z,65.30
2018-02-12T14:11:03.942Z,65.30
2018-02-12T14:13:36.996Z,64.90
2018-02-12T14:16:10.349Z,64.20
2018-02-12T14:18:42.730Z,62.30
2018-02-12T14:21:15.201Z,61.80
2018-02-12T14:23:47.896Z,60.40
2018-02-12T14:26:21.185Z,60.80
2018-02-12T14:28:53.840Z,60.20
2018-02-12T14:31:27.933Z,60.50
2018-02-12T14:34:01.263Z,60.50
2018-02-12T14:36:33.701Z,60.60
2018-02-12T14:39:06.284Z,60.90
2018-02-12T14:41:39.356Z,61.80
2018-02-12T14:44:11.965Z,61.80
2018-02-12T14:46:45.694Z,61.80
2018-02-12T14:49:18.141Z,61.30
2018-02-12T14:51:50.686Z,60.60
2018-02-12T14:54:23.269Z,60.30
2018-02-12T14:56:55.960Z,60.30
2018-02-12T14:59:28.518Z,61.00
2018-02-12T15:02:01.688Z,59.20
2018-02-12T15:04:34.600Z,59.20
2018-02-12T15:07:07.992Z,59.50
2018-02-12T15:09:41.576Z,59.70
2018-02-12T15:12:14.349Z,59.80
2018-02-12T15:14:46.873Z,60.30
2018-02-12T15:17:19.212Z,61.30
2018-02-12T15:19:51.742Z,62.20
2018-02-12T15:22:24.165Z,62.20
2018-02-12T15:24:57.547Z,62.00
2018-02-12T15:27:30.110Z,62.00
2018-02-12T15:30:03.557Z,61.70
2018-02-12T15:32:36.406Z,60.90
2018-02-12T15:35:08.811Z,61.10
2018-02-12T15:37:41.237Z,60.60
2018-02-12T15:40:13.573Z,60.60
2018-02-12T15:42:46.007Z,60.60
2018-02-12T15:45:18.463Z,60.70
2018-02-12T15:47:51.039Z,61.10
2018-02-12T15:50:24.213Z,62.00
2018-02-12T15:52:57.691Z,61.80
2018-02-12T15:55:30.471Z,61.80
2018-02-12T15:58:03.734Z,62.10
2018-02-12T16:00:36.623Z,62.10
2018-02-12T16:03:09.886Z,62.00
2018-02-12T16:05:42.506Z,61.30
2018-02-12T16:08:16.969Z,61.60
2018-02-12T16:10:49.469Z,61.60
2018-02-12T16:13:21.930Z,62.30
2018-02-12T16:15:54.345Z,62.60
2018-02-12T16:18:26.821Z,64.00
2018-02-12T16:20:59.495Z,64.80
2018-02-12T16:23:31.924Z,65.30
2018-02-12T16:26:04.511Z,65.20
2018-02-12T16:28:36.945Z,65.60
2018-02-12T16:31:09.578Z,65.70
2018-02-12T16:33:42.043Z,64.90
2018-02-12T16:36:14.620Z,64.80
2018-02-12T16:38:47.091Z,65.40
2018-02-12T16:41:19.771Z,65.60
2018-02-12T16:43:52.354Z,65.00
2018-02-12T16:46:24.847Z,63.70
2018-02-12T16:48:58.351Z,63.40
2018-02-12T16:51:31.238Z,63.60
2018-02-12T16:54:03.665Z,63.30
2018-02-12T16:56:37.221Z,63.60
2018-02-12T16:59:10.330Z,63.50
2018-02-12T17:01:42.763Z,62.90
2018-02-12T17:04:15.343Z,62.80
2018-02-12T17:06:47.885Z,63.00
2018-02-12T17:09:20.306Z,64.20
2018-02-12T17:11:53.011Z,64.50
2018-02-12T17:14:25.627Z,64.40
2018-02-12T17:16:58.858Z,64.60
2018-02-12T17:19:32.435Z,65.10
2018-02-12T17:22:05.326Z,65.10
2018-02-12T17:24:37.910Z,64.70
2018-02-12T17:27:10.551Z,65.80
2018-02-12T17:29:43.194Z,65.80
2018-02-12T17:32:15.728Z,65.60
2018-02-12T17:34:48.242Z,65.30
2018-02-12T17:37:21.318Z,66.00
2018-02-12T17:39:54.759Z,67.50
2018-02-12T17:42:28.506Z,68.50
2018-02-12T17:45:01.249Z,68.50
2018-02-12T17:47:33.973Z,68.70
2018-02-12T17:50:07.114Z,69.40
2018-02-12T17:52:40.635Z,69.20
2018-02-12T17:55:13.298Z,69.40
2018-02-12T17:57:45.842Z,69.70
2018-02-12T18:00:18.294Z,70.00
2018-02-12T18:02:50.756Z,70.30
2018-02-12T18:05:23.143Z,70.60
2018-02-12T18:07:55.871Z,71.00
2018-02-12T18:10:29.229Z,71.20
2018-02-12T18:13:01.904Z,71.20
2018-02-12T18:15:35.158Z,71.50
2018-02-12T18:18:08.564Z,71.70
2018-02-12T18:20:41.141Z,71.90
2018-02-12T18:23:13.718Z,71.90
2018-02-12T18:25:46.214Z,71.60
2018-02-12T18:28:19.584Z,71.40
2018-02-12T18:30:52.448Z,71.50
2018-02-12T18:33:24.974Z,71.50
2018-02-12T18:35:58.283Z,72.00
2018-02-12T18:38:31.285Z,72.10
2018-02-12T18:41:04.412Z,72.60
2018-02-12T18:43:37.598Z,72.50
2018-02-12T18:46:10.192Z,72.50
2018-02-12T18:48:42.542Z,72.30
2018-02-12T18:51:14.959Z,72.50
2018-02-12T18:53:47.817Z,72.60
2018-02-12T18:56:21.019Z,72.60
2018-02-12T18:58:53.438Z,72.50
2018-02-12T19:01:26.808Z,72.70
2018-02-12T19:03:59.300Z,72.70
2018-02-12T19:06:31.789Z,72.70
2018-02-12T19:09:04.454Z,73.10
2018-02-12T19:11:37.767Z,73.20
2018-02-12T19:14:10.239Z,73.60
2018-02-12T19:16:42.908Z,73.80
2018-02-12T19:19:16.715Z,74.50
2018-02-12T19:21:49.547Z,74.20
2018-02-12T19:24:23.025Z,74.80
2018-02-12T19:26:56.499Z,75.40
2018-02-12T19:29:29.593Z,74.80
2018-02-12T19:32:03.462Z,75.00
2018-02-12T19:34:37.406Z,75.10
2018-02-12T19:37:10.396Z,75.30
2018-02-12T19:39:44.197Z,75.10
2018-02-12T19:42:17.897Z,74.90
2018-02-12T19:44:51.086Z,75.00
2018-02-12T19:47:24.790Z,75.10
2018-02-12T19:49:58.336Z,75.00
2018-02-12T19:52:32.091Z,75.30
2018-02-12T19:55:06.718Z,75.10
2018-02-12T19:57:42.437Z,75.40
2018-02-12T20:00:19.019Z,75.40
2018-02-12T20:02:54.403Z,75.50
2018-02-12T20:05:28.488Z,75.10
2018-02-12T20:08:02.551Z,75.20
2018-02-12T20:10:38.047Z,75.10
2018-02-12T20:13:13.893Z,75.30
2018-02-12T20:15:49.587Z,75.40
2018-02-12T20:18:24.963Z,75.40
2018-02-12T20:21:00.970Z,75.70
2018-02-12T20:23:35.857Z,75.60
2018-02-12T20:26:10.999Z,75.90
2018-02-12T20:28:45.418Z,75.90
2018-02-12T20:31:21.229Z,75.60
2018-02-12T20:33:56.383Z,75.70
2018-02-12T20:36:32.129Z,75.50
2018-02-12T20:39:07.656Z,75.70
2018-02-12T20:41:42.707Z,75.80
2018-02-12T20:44:18.396Z,76.00
2018-02-12T20:46:53.889Z,75.70
2018-02-12T20:49:29.295Z,75.60
2018-02-12T20:52:04.799Z,76.30
2018-02-12T20:54:40.255Z,75.30
2018-02-12T20:57:15.155Z,75.70
2018-02-12T20:59:50.227Z,75.40
2018-02-12T21:02:24.942Z,75.30
2018-02-12T21:04:58.644Z,75.30
2018-02-12T21:07:33.565Z,75.20
2018-02-12T21:10:09.409Z,74.80
2018-02-12T21:12:42.726Z,74.80
2018-02-12T21:15:16.624Z,74.90
2018-02-12T21:17:50.017Z,75.10
2018-02-12T21:20:24.334Z,74.60
2018-02-12T21:22:58.857Z,74.60
2018-02-12T21:25:32.016Z,74.60
2018-02-12T21:28:05.799Z,74.60
2018-02-12T21:30:40.576Z,74.80
2018-02-12T21:33:14.043Z,74.70
2018-02-12T21:35:47.436Z,74.90
2018-02-12T21:38:21.277Z,74.60
2018-02-12T21:40:54.553Z,74.60
2018-02-12T21:43:27.326Z,74.50
2018-02-12T21:45:59.819Z,74.70
2018-02-12T21:48:32.201Z,74.20
2018-02-12T21:51:05.558Z,73.60
2018-02-12T21:53:39.626Z,73.20
2018-02-12T21:56:12.257Z,73.20
2018-02-12T21:58:44.914Z,73.40
2018-02-12T22:01:17.325Z,73.50
2018-02-12T22:03:49.911Z,74.00
2018-02-12T22:06:23.067Z,72.60
2018-02-12T22:08:56.673Z,72.70
2018-02-12T22:11:29.331Z,72.50
2018-02-12T22:14:02.109Z,72.50
2018-02-12T22:16:35.360Z,73.10
2018-02-12T22:19:08.336Z,73.00
2018-02-12T22:21:41.456Z,72.90
2018-02-12T22:24:15.120Z,72.60
2018-02-12T22:26:47.819Z,72.60
2018-02-12T22:29:21.209Z,72.40
2018-02-12T22:31:54.002Z,72.20
2018-02-12T22:34:26.770Z,72.40
2018-02-12T22:36:59.920Z,72.30
2018-02-12T22:39:32.432Z,72.40
2018-02-12T22:42:04.995Z,72.60
2018-02-12T22:44:37.409Z,72.90
2018-02-12T22:47:09.842Z,73.10
2018-02-12T22:49:42.432Z,73.60
2018-02-12T22:52:15.050Z,73.50
2018-02-12T22:54:47.868Z,73.70
2018-02-12T22:57:21.282Z,74.50
2018-02-12T22:59:54.167Z,74.20
2018-02-12T23:02:26.548Z,74.30
2018-02-12T23:04:58.930Z,74.50
2018-02-12T23:07:31.504Z,74.60
2018-02-12T23:10:04.074Z,74.30
2018-02-12T23:12:36.763Z,74.30
2018-02-12T23:15:15.577Z,74.60
2018-02-12T23:17:48.006Z,74.20
2018-02-12T23:20:20.576Z,74.30
2018-02-12T23:22:53.021Z,74.30
2018-02-12T23:25:25.619Z,74.30
2018-02-12T23:27:58.202Z,74.10
2018-02-12T23:30:31.459Z,74.40
2018-02-12T23:33:04.503Z,74.10
2018-02-12T23:35:37.081Z,74.40
2018-02-12T23:38:09.713Z,75.10
2018-02-12T23:40:42.412Z,74.30
2018-02-12T23:43:14.727Z,74.30
2018-02-12T23:45:47.206Z,74.10
2018-02-12T23:48:19.753Z,74.20
2018-02-12T23:50:52.577Z,74.80
2018-02-12T23:53:25.713Z,74.60
2018-02-12T23:55:58.772Z,74.50
2018-02-12T23:58:31.100Z,74.70
